Terminal Aerodrome Forecast
Issued by NWS

Current Version | Previous Version | Graphics & Text | Print | Product List | Glossary Off
Versions: 1 2 3 4 5 6 7 8 9 10 11 12 13 14 15 16 17 18

000
FTUS42 KILM 210500
TAFCRE
TAF
KCRE 210539Z 2106/2206 VRB02KT P6SM VCSH SCT090
     FM211400 29006KT P6SM FEW050
     FM211800 24007G14KT P6SM SKC
     FM220300 34009G15KT P6SM SKC=

USA.gov is the U.S. government's official web portal to all federal, state and local government web resources and services.